createdAt,value
2023-04-27T00:01:41.414Z,7.00
2023-04-27T00:04:08.456Z,7.10
2023-04-27T00:06:35.452Z,7.20
2023-04-27T00:09:02.399Z,7.10
2023-04-27T00:11:29.507Z,7.10
2023-04-27T00:13:56.814Z,7.10
2023-04-27T00:16:23.723Z,7.10
2023-04-27T00:18:50.928Z,7.10
2023-04-27T00:21:17.852Z,7.10
2023-04-27T00:23:44.680Z,7.10
2023-04-27T00:26:11.683Z,7.10
2023-04-27T00:28:39.933Z,7.20
2023-04-27T00:31:07.040Z,7.20
2023-04-27T00:33:33.875Z,7.20
2023-04-27T00:36:01.686Z,7.20
2023-04-27T00:38:29.455Z,7.20
2023-04-27T00:41:04.330Z,7.30
2023-04-27T00:43:31.494Z,7.40
2023-04-27T00:45:59.739Z,7.30
2023-04-27T00:48:26.888Z,7.30
2023-04-27T00:50:54.311Z,7.20
2023-04-27T00:53:21.634Z,7.20
2023-04-27T00:58:16.977Z,7.20
2023-04-27T01:00:44.140Z,7.10
2023-04-27T01:03:11.495Z,7.10
2023-04-27T01:05:39.190Z,7.00
2023-04-27T01:08:08.003Z,7.00
2023-04-27T01:10:34.938Z,7.00
2023-04-27T01:13:02.448Z,7.00
2023-04-27T01:15:31.176Z,7.00
2023-04-27T01:18:01.950Z,6.90
2023-04-27T01:20:30.379Z,6.90
2023-04-27T01:25:25.873Z,6.90
2023-04-27T01:27:53.733Z,7.00
2023-04-27T01:30:22.519Z,6.90
2023-04-27T01:32:50.190Z,7.00
2023-04-27T01:35:19.468Z,7.00
2023-04-27T01:37:46.374Z,7.00
2023-04-27T01:40:13.646Z,7.00
2023-04-27T01:42:40.832Z,7.00
2023-04-27T01:45:09.463Z,7.00
2023-04-27T01:47:36.399Z,7.10
2023-04-27T01:50:03.962Z,7.00
2023-04-27T01:54:59.308Z,7.00
2023-04-27T01:57:27.010Z,7.00
2023-04-27T01:59:55.481Z,7.00
2023-04-27T02:02:22.479Z,7.00
2023-04-27T02:04:49.516Z,7.00
2023-04-27T02:07:16.479Z,7.00
2023-04-27T02:09:43.407Z,7.00
2023-04-27T02:12:13.433Z,7.00
2023-04-27T02:14:40.288Z,6.90
2023-04-27T02:17:07.251Z,7.00
2023-04-27T02:19:34.172Z,7.00
2023-04-27T02:22:01.558Z,7.00
2023-04-27T02:24:28.550Z,6.90
2023-04-27T02:26:55.484Z,6.90
2023-04-27T02:29:22.397Z,6.90
2023-04-27T02:31:49.851Z,6.90
2023-04-27T02:34:16.742Z,6.90
2023-04-27T02:36:43.581Z,7.00
2023-04-27T02:39:10.514Z,7.00
2023-04-27T02:41:38.532Z,6.90
2023-04-27T02:44:05.509Z,6.90
2023-04-27T02:46:32.541Z,7.00
2023-04-27T02:48:59.374Z,7.00
2023-04-27T02:51:26.978Z,7.10
2023-04-27T02:53:54.397Z,7.10
2023-04-27T02:56:21.292Z,7.00
2023-04-27T02:58:48.178Z,7.10
2023-04-27T03:01:17.317Z,7.00
2023-04-27T03:03:48.122Z,7.00
2023-04-27T03:06:15.587Z,7.00
2023-04-27T03:08:42.733Z,7.00
2023-04-27T03:11:09.726Z,7.00
2023-04-27T03:13:42.010Z,7.00
2023-04-27T03:16:12.076Z,7.00
2023-04-27T03:18:39.829Z,7.00
2023-04-27T03:21:08.125Z,7.00
2023-04-27T03:23:35.447Z,6.90
2023-04-27T03:26:08.725Z,6.90
2023-04-27T03:28:35.878Z,6.90
2023-04-27T03:31:20.674Z,6.80
2023-04-27T03:33:47.578Z,6.80
2023-04-27T03:38:42.920Z,6.70
2023-04-27T03:41:09.906Z,6.70
2023-04-27T03:43:37.019Z,6.80
2023-04-27T03:46:03.931Z,6.80
2023-04-27T03:48:30.992Z,6.80
2023-04-27T03:50:57.935Z,6.80
2023-04-27T03:53:25.080Z,6.90
2023-04-27T03:55:52.229Z,6.90
2023-04-27T03:58:19.200Z,6.90
2023-04-27T04:01:06.477Z,6.90
2023-04-27T04:03:33.696Z,6.90
2023-04-27T04:06:01.326Z,6.90
2023-04-27T04:08:28.673Z,6.90
2023-04-27T04:10:56.936Z,6.90
2023-04-27T04:13:25.267Z,6.90
2023-04-27T04:16:04.568Z,7.00
2023-04-27T04:18:31.702Z,7.00
2023-04-27T04:20:58.886Z,6.90
2023-04-27T04:23:26.875Z,6.90
2023-04-27T04:25:56.378Z,6.90
2023-04-27T04:28:58.065Z,7.50
2023-04-27T04:31:25.080Z,6.80
2023-04-27T04:33:52.045Z,6.90
2023-04-27T04:36:19.050Z,6.90
2023-04-27T04:38:46.092Z,6.80
2023-04-27T04:41:12.988Z,6.70
2023-04-27T04:46:07.921Z,6.50
2023-04-27T04:48:34.976Z,6.50
2023-04-27T04:51:01.826Z,6.50
2023-04-27T04:53:29.572Z,6.50
2023-04-27T04:55:56.507Z,6.60
2023-04-27T04:58:23.427Z,6.60
2023-04-27T05:00:50.622Z,6.60
2023-04-27T05:03:17.773Z,6.60
2023-04-27T05:05:44.821Z,6.50
2023-04-27T05:08:11.647Z,6.60
2023-04-27T05:10:38.480Z,6.60
2023-04-27T05:13:07.056Z,6.50
2023-04-27T05:15:34.121Z,6.60
2023-04-27T05:18:01.039Z,6.50
2023-04-27T05:20:27.939Z,6.50
2023-04-27T05:22:54.769Z,6.50
2023-04-27T05:25:21.605Z,6.60
2023-04-27T05:27:48.432Z,6.60
2023-04-27T05:30:15.576Z,6.60
2023-04-27T05:32:42.427Z,6.70
2023-04-27T05:35:09.922Z,6.80
2023-04-27T05:37:36.941Z,6.80
2023-04-27T05:40:05.994Z,6.90
2023-04-27T05:42:33.146Z,7.00
2023-04-27T05:45:00.043Z,7.00
2023-04-27T05:47:26.942Z,7.10
2023-04-27T05:49:55.206Z,7.20
2023-04-27T05:52:22.340Z,7.30
2023-04-27T05:54:50.495Z,7.30
2023-04-27T05:57:17.502Z,7.40
2023-04-27T05:59:44.420Z,7.40
2023-04-27T06:02:11.425Z,7.40
2023-04-27T06:04:38.534Z,7.50
2023-04-27T06:07:16.346Z,7.50
2023-04-27T06:09:43.333Z,7.50
2023-04-27T06:12:10.508Z,7.50
2023-04-27T06:14:38.147Z,7.50
2023-04-27T06:17:05.053Z,7.60
2023-04-27T06:19:31.992Z,7.60
2023-04-27T06:21:58.865Z,7.60
2023-04-27T06:24:25.742Z,7.70
2023-04-27T06:26:52.651Z,7.70
2023-04-27T06:29:19.539Z,7.80
2023-04-27T06:31:47.312Z,7.80
2023-04-27T06:34:14.316Z,7.80
2023-04-27T06:36:41.300Z,7.90
2023-04-27T06:39:08.177Z,7.90
2023-04-27T06:41:35.171Z,8.00
2023-04-27T06:44:02.451Z,8.00
2023-04-27T06:46:29.350Z,8.00
2023-04-27T06:48:56.360Z,8.00
2023-04-27T06:51:23.185Z,8.10
2023-04-27T06:53:50.044Z,8.10
2023-04-27T06:56:17.219Z,8.10
2023-04-27T06:58:44.121Z,8.10
2023-04-27T07:01:11.098Z,8.10
2023-04-27T07:03:38.300Z,8.10
2023-04-27T07:06:05.852Z,8.20
2023-04-27T07:08:33.939Z,8.10
2023-04-27T07:11:00.971Z,8.10
2023-04-27T07:13:27.899Z,8.10
2023-04-27T07:15:57.957Z,8.20
2023-04-27T07:18:26.019Z,8.20
2023-04-27T07:20:52.880Z,8.20
2023-04-27T07:23:19.697Z,8.20
2023-04-27T07:25:46.687Z,8.30
2023-04-27T07:28:13.506Z,8.40
2023-04-27T07:30:41.675Z,8.40
2023-04-27T07:33:09.943Z,8.40
2023-04-27T07:35:37.228Z,8.40
2023-04-27T07:38:04.078Z,8.50
2023-04-27T07:40:32.813Z,8.50
2023-04-27T07:42:59.929Z,8.70
2023-04-27T07:45:33.617Z,8.60
2023-04-27T07:48:02.378Z,8.60
2023-04-27T07:50:32.064Z,8.70
2023-04-27T07:52:59.499Z,8.70
2023-04-27T07:55:26.799Z,8.70
2023-04-27T07:57:54.481Z,8.70
2023-04-27T08:00:22.365Z,8.70
2023-04-27T08:02:50.721Z,8.70
2023-04-27T08:05:18.352Z,8.80
2023-04-27T08:07:45.968Z,9.00
2023-04-27T08:10:13.523Z,8.90
2023-04-27T08:12:40.649Z,9.00
2023-04-27T08:15:08.373Z,9.00
2023-04-27T08:17:36.453Z,9.10
2023-04-27T08:20:04.028Z,9.40
2023-04-27T08:22:31.526Z,9.30
2023-04-27T08:24:58.409Z,9.30
2023-04-27T08:27:25.333Z,9.40
2023-04-27T08:29:52.553Z,9.40
2023-04-27T08:32:19.416Z,9.50
2023-04-27T08:34:46.554Z,9.50
2023-04-27T08:39:40.720Z,9.50
2023-04-27T08:42:12.236Z,9.50
2023-04-27T08:44:40.341Z,9.50
2023-04-27T08:47:08.867Z,9.50
2023-04-27T08:49:38.946Z,9.50
2023-04-27T08:52:13.805Z,9.50
2023-04-27T08:54:41.274Z,9.50
2023-04-27T08:57:15.828Z,9.40
2023-04-27T08:59:46.073Z,9.40
2023-04-27T09:02:22.071Z,9.40
2023-04-27T09:04:49.308Z,9.40
2023-04-27T09:07:18.192Z,9.30
2023-04-27T09:09:46.145Z,9.30
2023-04-27T09:12:20.965Z,9.30
2023-04-27T09:15:05.298Z,9.30
2023-04-27T09:17:33.708Z,9.40
2023-04-27T09:20:13.432Z,9.30
2023-04-27T09:22:47.762Z,9.40
2023-04-27T09:25:29.410Z,9.50
2023-04-27T09:27:58.343Z,9.50
2023-04-27T09:30:29.169Z,9.50
2023-04-27T09:33:01.767Z,9.60
2023-04-27T09:35:33.527Z,9.60
2023-04-27T09:38:01.585Z,9.60
2023-04-27T09:40:31.235Z,9.60
2023-04-27T09:43:04.034Z,9.70
2023-04-27T09:45:33.289Z,9.70
2023-04-27T09:48:01.864Z,9.70
2023-04-27T09:50:28.858Z,9.70
2023-04-27T09:52:56.408Z,9.70
2023-04-27T09:55:28.461Z,9.70
2023-04-27T09:58:33.200Z,9.80
2023-04-27T10:01:26.243Z,9.80
2023-04-27T10:04:30.239Z,9.90
2023-04-27T10:07:04.847Z,10.00
2023-04-27T10:09:37.076Z,10.10
2023-04-27T10:12:20.198Z,10.10
2023-04-27T10:14:59.090Z,10.20
2023-04-27T10:17:27.005Z,10.20
2023-04-27T10:19:59.374Z,10.20
2023-04-27T10:22:47.460Z,10.30
2023-04-27T10:25:24.046Z,10.20
2023-04-27T10:27:58.272Z,10.20
2023-04-27T10:30:31.589Z,10.20
2023-04-27T10:33:03.939Z,10.30
2023-04-27T10:35:33.664Z,10.30
2023-04-27T10:38:18.569Z,10.30
2023-04-27T10:40:54.442Z,10.30
2023-04-27T10:43:29.474Z,10.30
2023-04-27T10:46:11.668Z,10.30
2023-04-27T10:48:43.489Z,10.30
2023-04-27T10:51:15.415Z,10.40
2023-04-27T10:53:42.423Z,10.40
2023-04-27T10:58:48.354Z,10.40
2023-04-27T11:01:27.029Z,10.50
2023-04-27T11:03:57.986Z,10.50
2023-04-27T11:06:25.178Z,10.60
2023-04-27T11:08:52.211Z,10.60
2023-04-27T11:11:19.648Z,10.60
2023-04-27T11:13:49.675Z,10.60
2023-04-27T11:16:17.146Z,10.70
2023-04-27T11:18:44.013Z,10.70
2023-04-27T11:21:10.900Z,10.80
2023-04-27T11:23:39.085Z,10.80
2023-04-27T11:26:25.191Z,10.90
2023-04-27T11:28:58.819Z,10.90
2023-04-27T11:31:38.896Z,11.00
2023-04-27T11:34:07.835Z,11.00
2023-04-27T11:36:35.059Z,11.00
2023-04-27T11:39:02.264Z,11.00
2023-04-27T11:41:36.780Z,11.00
2023-04-27T11:44:11.364Z,11.10
2023-04-27T11:46:38.798Z,11.10
2023-04-27T11:49:08.873Z,11.10
2023-04-27T11:51:38.692Z,11.10
2023-04-27T11:54:07.305Z,11.10
2023-04-27T11:56:36.302Z,11.00
2023-04-27T11:59:03.619Z,11.10
2023-04-27T12:01:37.965Z,11.10
2023-04-27T12:04:05.571Z,11.10
2023-04-27T12:06:33.756Z,11.10
2023-04-27T12:09:01.285Z,11.10
2023-04-27T12:11:28.306Z,11.20
2023-04-27T12:13:56.184Z,11.10
2023-04-27T12:16:23.310Z,11.10
2023-04-27T12:18:50.533Z,11.00
2023-04-27T12:21:18.038Z,11.00
2023-04-27T12:23:45.058Z,11.00
2023-04-27T12:26:14.988Z,11.00
2023-04-27T12:28:42.404Z,11.00
2023-04-27T12:31:13.305Z,10.90
2023-04-27T12:33:40.236Z,11.00
2023-04-27T12:36:07.432Z,10.90
2023-04-27T12:38:34.266Z,11.00
2023-04-27T12:41:02.527Z,11.00
2023-04-27T12:43:29.395Z,10.90
2023-04-27T12:45:56.308Z,10.90
2023-04-27T12:48:23.792Z,11.00
2023-04-27T12:50:50.939Z,11.00
2023-04-27T12:53:17.829Z,11.00
2023-04-27T12:55:44.888Z,11.10
2023-04-27T12:58:11.910Z,11.10
2023-04-27T13:00:38.812Z,11.10
2023-04-27T13:03:06.936Z,11.10
2023-04-27T13:05:33.952Z,11.10
2023-04-27T13:08:00.798Z,11.10
2023-04-27T13:10:29.621Z,11.10
2023-04-27T13:12:57.035Z,11.20
2023-04-27T13:15:23.917Z,11.20
2023-04-27T13:17:53.223Z,11.20
2023-04-27T13:20:20.676Z,11.30
2023-04-27T13:22:48.201Z,11.30
2023-04-27T13:25:16.620Z,11.30
2023-04-27T13:27:43.538Z,11.30
2023-04-27T13:30:10.684Z,11.30
2023-04-27T13:32:37.667Z,11.30
2023-04-27T13:35:05.498Z,11.30
2023-04-27T13:37:32.495Z,11.30
2023-04-27T13:39:59.321Z,11.30
2023-04-27T13:42:29.390Z,11.40
2023-04-27T13:44:57.094Z,11.40
2023-04-27T13:47:23.959Z,11.30
2023-04-27T13:49:50.892Z,11.30
2023-04-27T13:52:17.772Z,11.30
2023-04-27T13:54:44.582Z,11.30
2023-04-27T13:57:11.489Z,11.30
2023-04-27T13:59:38.441Z,11.30
2023-04-27T14:02:05.454Z,11.40
2023-04-27T14:04:32.571Z,11.40
2023-04-27T14:06:59.676Z,11.40
2023-04-27T14:09:27.318Z,11.40
2023-04-27T14:11:57.216Z,11.40
2023-04-27T14:19:20.678Z,11.40
2023-04-27T14:21:49.566Z,11.40
2023-04-27T14:24:16.528Z,11.40
2023-04-27T14:26:44.274Z,11.50
2023-04-27T14:31:39.783Z,11.50
2023-04-27T14:36:34.749Z,11.60
2023-04-27T14:41:28.934Z,11.60
2023-04-27T14:43:56.034Z,11.60
2023-04-27T14:46:23.331Z,11.60
2023-04-27T14:48:51.480Z,11.70
2023-04-27T14:51:18.797Z,11.70
2023-04-27T14:53:46.138Z,11.70
2023-04-27T14:56:13.361Z,11.70
2023-04-27T14:58:41.464Z,11.70
2023-04-27T15:03:36.144Z,11.70
2023-04-27T15:06:03.523Z,11.70
2023-04-27T15:08:32.699Z,11.70
2023-04-27T15:11:01.127Z,10.70
2023-04-27T15:13:28.735Z,11.80
2023-04-27T15:15:59.264Z,11.80
2023-04-27T15:18:26.314Z,11.80
2023-04-27T15:20:53.558Z,11.80
2023-04-27T15:23:21.686Z,11.80
2023-04-27T15:25:49.893Z,11.80
2023-04-27T15:28:18.173Z,11.80
2023-04-27T15:30:45.738Z,11.80
2023-04-27T15:33:14.018Z,11.90
2023-04-27T15:35:41.462Z,11.80
2023-04-27T15:38:11.166Z,11.80
2023-04-27T15:43:06.065Z,11.90
2023-04-27T15:50:28.841Z,11.90
2023-04-27T15:52:56.236Z,11.90
2023-04-27T15:57:50.718Z,11.90
2023-04-27T16:00:18.979Z,11.90
2023-04-27T16:02:46.974Z,12.00
2023-04-27T16:07:43.361Z,12.00
2023-04-27T16:10:11.545Z,11.90
2023-04-27T16:12:38.832Z,12.00
2023-04-27T16:15:08.465Z,11.90
2023-04-27T16:17:37.323Z,11.90
2023-04-27T16:20:06.874Z,11.90
2023-04-27T16:22:34.720Z,11.90
2023-04-27T16:25:02.060Z,11.90
2023-04-27T16:27:28.909Z,11.90
2023-04-27T16:29:56.582Z,11.90
2023-04-27T16:34:51.028Z,11.90
2023-04-27T16:37:17.911Z,11.90
2023-04-27T16:39:45.268Z,11.90
2023-04-27T16:42:16.306Z,11.90
2023-04-27T16:44:43.109Z,11.90
2023-04-27T16:49:37.835Z,11.90
2023-04-27T16:52:05.204Z,11.90
2023-04-27T16:56:59.557Z,11.90
2023-04-27T16:59:26.645Z,11.90
2023-04-27T17:01:53.614Z,11.90
2023-04-27T17:04:20.814Z,11.90
2023-04-27T17:06:48.599Z,11.90
2023-04-27T17:09:15.683Z,11.90
2023-04-27T17:11:42.946Z,11.90
2023-04-27T17:14:09.965Z,11.80
2023-04-27T17:16:36.972Z,11.90
2023-04-27T17:19:03.944Z,11.90
2023-04-27T17:21:31.706Z,11.80
2023-04-27T17:23:58.985Z,11.80
2023-04-27T17:26:26.143Z,11.80
2023-04-27T17:28:55.040Z,11.80
2023-04-27T17:31:21.913Z,11.80
2023-04-27T17:33:49.363Z,11.80
2023-04-27T17:36:16.357Z,11.80
2023-04-27T17:38:43.706Z,11.80
2023-04-27T17:41:10.868Z,11.80
2023-04-27T17:43:38.012Z,11.80
2023-04-27T17:46:09.953Z,11.90
2023-04-27T17:48:37.902Z,11.80
2023-04-27T17:51:04.851Z,11.80
2023-04-27T17:58:28.014Z,11.80
2023-04-27T18:00:55.162Z,11.80
2023-04-27T18:05:49.710Z,11.80
2023-04-27T18:10:44.038Z,11.70
2023-04-27T18:13:11.245Z,11.70
2023-04-27T18:15:38.449Z,11.70
2023-04-27T18:18:06.489Z,11.70
2023-04-27T18:23:01.130Z,11.70
2023-04-27T18:25:28.184Z,11.70
2023-04-27T18:27:56.097Z,11.60
2023-04-27T18:32:50.450Z,11.60
2023-04-27T18:35:17.514Z,11.60
2023-04-27T18:37:48.427Z,11.50
2023-04-27T18:40:22.213Z,11.50
2023-04-27T18:42:50.140Z,11.50
2023-04-27T18:47:44.306Z,11.50
2023-04-27T18:50:13.188Z,11.40
2023-04-27T18:52:40.029Z,11.50
2023-04-27T18:55:09.053Z,11.40
2023-04-27T18:57:36.676Z,11.40
2023-04-27T19:00:05.959Z,11.40
2023-04-27T19:02:36.398Z,11.40
2023-04-27T19:05:13.080Z,11.40
2023-04-27T19:07:40.875Z,11.30
2023-04-27T19:10:08.562Z,11.20
2023-04-27T19:12:35.982Z,11.30
2023-04-27T19:17:31.515Z,11.20
2023-04-27T19:19:58.687Z,11.20
2023-04-27T19:22:27.191Z,11.10
2023-04-27T19:24:54.272Z,11.10
2023-04-27T19:29:54.425Z,11.00
2023-04-27T19:32:22.126Z,11.00
2023-04-27T19:34:49.396Z,10.90
2023-04-27T19:42:11.335Z,10.70
2023-04-27T19:44:38.333Z,10.60
2023-04-27T19:47:06.758Z,10.50
2023-04-27T19:49:33.864Z,10.50
2023-04-27T19:52:00.972Z,10.40
2023-04-27T19:56:56.125Z,10.30
2023-04-27T20:01:50.348Z,10.20
2023-04-27T20:06:46.332Z,10.20
2023-04-27T20:09:13.275Z,10.20
2023-04-27T20:11:40.377Z,10.10
2023-04-27T20:16:34.552Z,10.10
2023-04-27T20:19:01.476Z,10.70
2023-04-27T20:21:29.363Z,10.10
2023-04-27T20:23:56.459Z,10.10
2023-04-27T20:26:24.445Z,10.10
2023-04-27T20:31:19.149Z,10.10
2023-04-27T20:33:46.057Z,10.20
2023-04-27T20:38:45.754Z,10.20
2023-04-27T20:46:08.243Z,10.20
2023-04-27T20:48:35.128Z,10.20
2023-04-27T20:51:02.240Z,10.20
2023-04-27T20:53:29.142Z,10.10
2023-04-27T20:55:56.927Z,10.10
2023-04-27T20:58:23.873Z,10.10
2023-04-27T21:03:18.653Z,10.00
2023-04-27T21:08:14.281Z,10.00
2023-04-27T21:15:36.052Z,10.10
2023-04-27T21:18:05.500Z,10.10
2023-04-27T21:20:33.432Z,10.20
2023-04-27T21:23:01.689Z,10.20
2023-04-27T21:25:28.625Z,10.20
2023-04-27T21:27:55.456Z,10.30
2023-04-27T21:30:22.315Z,10.30
2023-04-27T21:35:16.577Z,10.30
2023-04-27T21:37:43.439Z,10.40
2023-04-27T21:40:10.751Z,10.30
2023-04-27T21:45:05.357Z,10.40
2023-04-27T21:49:59.619Z,10.40
2023-04-27T21:52:26.506Z,10.40
2023-04-27T21:54:53.389Z,10.40
2023-04-27T21:57:20.331Z,10.50
2023-04-27T21:59:47.287Z,10.50
2023-04-27T22:02:14.211Z,10.50
2023-04-27T22:04:41.292Z,10.50
2023-04-27T22:09:35.921Z,10.50
2023-04-27T22:12:03.017Z,10.50
2023-04-27T22:17:00.958Z,10.50
2023-04-27T22:19:28.651Z,10.50
2023-04-27T22:21:56.521Z,10.50
2023-04-27T22:24:23.766Z,10.50
2023-04-27T22:26:50.925Z,10.50
2023-04-27T22:29:18.225Z,10.50
2023-04-27T22:31:45.738Z,10.50
2023-04-27T22:34:13.446Z,10.40
2023-04-27T22:36:40.619Z,10.40
2023-04-27T22:39:08.273Z,10.40
2023-04-27T22:44:03.060Z,10.40
2023-04-27T22:51:27.541Z,10.40
2023-04-27T22:53:54.793Z,10.40
2023-04-27T22:56:22.539Z,10.40
2023-04-27T22:58:49.571Z,10.40
2023-04-27T23:01:17.108Z,10.40
2023-04-27T23:03:44.221Z,10.30
2023-04-27T23:06:14.512Z,10.30
2023-04-27T23:08:43.071Z,10.30
2023-04-27T23:11:13.580Z,10.30
2023-04-27T23:13:40.474Z,10.20
2023-04-27T23:16:09.627Z,10.20
2023-04-27T23:18:36.574Z,10.20
2023-04-27T23:21:03.603Z,10.20
2023-04-27T23:23:30.933Z,10.20
2023-04-27T23:25:57.720Z,10.20
2023-04-27T23:28:24.645Z,10.20
2023-04-27T23:30:55.110Z,10.10
2023-04-27T23:33:22.207Z,10.10
2023-04-27T23:38:16.443Z,10.10
2023-04-27T23:40:43.281Z,10.00
2023-04-27T23:45:37.671Z,10.00
2023-04-27T23:48:05.119Z,10.00
2023-04-27T23:50:32.527Z,10.00
2023-04-27T23:55:26.923Z,10.00
2023-04-27T23:57:53.781Z,10.00
